createdAt,value
2018-03-22T00:00:04.501Z,99.99
2018-03-22T00:01:05.066Z,99.99
2018-03-22T00:02:05.632Z,99.99
2018-03-22T00:03:06.197Z,99.99
2018-03-22T00:04:06.762Z,99.99
2018-03-22T00:05:07.327Z,99.99
2018-03-22T00:06:07.906Z,99.99
2018-03-22T00:07:08.469Z,99.99
2018-03-22T00:08:09.047Z,99.99
2018-03-22T00:09:09.620Z,99.99
2018-03-22T00:10:10.190Z,99.99
2018-03-22T00:11:10.756Z,99.99
2018-03-22T00:12:11.322Z,99.99
2018-03-22T00:13:11.888Z,99.99
2018-03-22T00:14:12.455Z,99.99
2018-03-22T00:15:13.022Z,99.99
2018-03-22T00:16:13.589Z,99.99
2018-03-22T00:17:14.153Z,99.99
2018-03-22T00:18:14.731Z,99.99
2018-03-22T00:19:15.307Z,99.99
2018-03-22T00:20:15.872Z,99.99
2018-03-22T00:21:16.438Z,99.99
2018-03-22T00:22:17.003Z,99.99
2018-03-22T00:23:17.568Z,99.99
2018-03-22T00:24:18.135Z,99.99
2018-03-22T00:25:18.699Z,99.99
2018-03-22T00:26:19.264Z,99.99
2018-03-22T00:27:19.830Z,99.99
2018-03-22T00:28:20.396Z,99.99
2018-03-22T00:29:20.966Z,99.99
2018-03-22T00:30:21.528Z,99.99
2018-03-22T00:31:22.093Z,99.99
2018-03-22T00:32:22.660Z,99.99
2018-03-22T00:33:23.224Z,99.99
2018-03-22T00:34:23.788Z,99.99
2018-03-22T00:35:24.352Z,99.99
2018-03-22T00:36:24.916Z,99.99
2018-03-22T00:37:25.479Z,99.99
2018-03-22T00:38:26.042Z,99.99
2018-03-22T00:39:26.606Z,99.99
2018-03-22T00:40:27.169Z,99.99
2018-03-22T00:41:27.734Z,99.99
2018-03-22T00:42:28.297Z,99.99
2018-03-22T00:43:28.872Z,99.99
2018-03-22T00:44:29.437Z,99.99
2018-03-22T00:45:30.003Z,99.99
2018-03-22T00:46:30.570Z,99.99
2018-03-22T00:47:31.133Z,99.99
2018-03-22T00:48:31.704Z,99.99
2018-03-22T00:49:32.264Z,99.99
2018-03-22T00:50:32.838Z,99.99
2018-03-22T00:51:33.401Z,99.99
2018-03-22T00:52:33.966Z,99.99
2018-03-22T00:53:34.529Z,99.99
2018-03-22T00:54:35.106Z,99.99
2018-03-22T00:55:35.679Z,99.99
2018-03-22T00:56:36.243Z,99.99
2018-03-22T00:57:36.809Z,99.99
2018-03-22T00:58:37.385Z,99.99
2018-03-22T00:59:37.960Z,99.99
2018-03-22T01:00:38.525Z,99.99
2018-03-22T01:01:39.089Z,99.99
2018-03-22T01:02:39.654Z,99.99
2018-03-22T01:03:40.221Z,99.99
2018-03-22T01:04:40.786Z,99.99
2018-03-22T01:05:41.350Z,99.99
2018-03-22T01:06:41.917Z,99.99
2018-03-22T01:07:42.482Z,99.99
2018-03-22T01:08:43.047Z,99.99
2018-03-22T01:09:43.611Z,99.99
2018-03-22T01:10:44.196Z,99.99
2018-03-22T01:11:44.746Z,99.99
2018-03-22T01:12:45.310Z,99.99
2018-03-22T01:13:45.874Z,99.99
2018-03-22T01:14:46.440Z,99.99
2018-03-22T01:15:47.013Z,99.99
2018-03-22T01:16:47.576Z,99.99
2018-03-22T01:17:48.151Z,99.99
2018-03-22T01:18:48.713Z,99.99
2018-03-22T01:19:49.276Z,99.99
2018-03-22T01:20:49.840Z,99.99
2018-03-22T01:21:50.404Z,99.99
2018-03-22T01:22:50.970Z,99.99
2018-03-22T01:23:51.536Z,99.99
2018-03-22T01:24:52.096Z,99.99
2018-03-22T01:25:52.661Z,99.99
2018-03-22T01:26:53.224Z,99.99
2018-03-22T01:27:53.789Z,99.99
2018-03-22T01:28:54.354Z,99.99
2018-03-22T01:29:54.918Z,99.99
2018-03-22T01:30:55.480Z,99.99
2018-03-22T01:31:56.044Z,99.99
2018-03-22T01:32:56.610Z,99.99
2018-03-22T01:33:57.172Z,99.99
2018-03-22T01:34:57.735Z,99.99
2018-03-22T01:35:58.299Z,99.99
2018-03-22T01:36:58.862Z,99.99
2018-03-22T01:37:59.429Z,99.99
2018-03-22T01:38:59.991Z,99.99
2018-03-22T01:40:00.557Z,99.99
2018-03-22T01:41:01.121Z,99.99
2018-03-22T01:42:01.685Z,99.99
2018-03-22T01:43:02.249Z,99.99
2018-03-22T01:44:02.814Z,99.99
2018-03-22T01:45:03.378Z,99.99
2018-03-22T01:46:03.954Z,99.99
2018-03-22T01:47:04.524Z,99.99
2018-03-22T01:48:05.087Z,99.99
2018-03-22T01:49:05.652Z,99.99
2018-03-22T01:50:06.217Z,99.99
2018-03-22T01:51:06.782Z,99.99
2018-03-22T01:52:07.346Z,99.99
2018-03-22T01:53:07.912Z,99.99
2018-03-22T01:54:08.481Z,99.99
2018-03-22T01:55:09.051Z,99.99
2018-03-22T01:56:09.618Z,99.99
2018-03-22T01:57:10.182Z,99.99
2018-03-22T01:58:10.755Z,99.99
2018-03-22T01:59:11.318Z,99.99
2018-03-22T02:00:11.885Z,99.99
2018-03-22T02:01:12.446Z,99.99
2018-03-22T02:02:13.011Z,99.99
2018-03-22T02:03:13.577Z,99.99
2018-03-22T02:04:14.139Z,99.99
2018-03-22T02:05:14.705Z,99.99
2018-03-22T02:06:15.268Z,99.99
2018-03-22T02:07:15.832Z,99.99
2018-03-22T02:08:16.397Z,99.99
2018-03-22T02:09:16.962Z,99.99
2018-03-22T02:10:17.533Z,99.99
2018-03-22T02:11:18.099Z,99.99
2018-03-22T02:12:18.663Z,99.99
2018-03-22T02:13:19.229Z,99.99
2018-03-22T02:14:19.794Z,99.99
2018-03-22T02:15:20.370Z,99.99
2018-03-22T02:16:20.933Z,99.99
2018-03-22T02:17:21.496Z,99.99
2018-03-22T02:18:22.061Z,99.99
2018-03-22T02:19:22.625Z,99.99
2018-03-22T02:20:23.199Z,99.99
2018-03-22T02:21:23.766Z,99.99
2018-03-22T02:22:24.341Z,99.99
2018-03-22T02:23:24.904Z,99.99
2018-03-22T02:24:25.488Z,99.99
2018-03-22T02:25:26.043Z,99.99
2018-03-22T02:26:26.606Z,99.99
2018-03-22T02:27:27.173Z,99.99
2018-03-22T02:28:27.741Z,99.99
2018-03-22T02:29:28.303Z,99.99
2018-03-22T02:30:28.866Z,99.99
2018-03-22T02:31:29.431Z,99.99
2018-03-22T02:32:29.996Z,99.99
2018-03-22T02:33:30.563Z,99.99
2018-03-22T02:34:31.127Z,99.99
2018-03-22T02:35:31.721Z,99.99
2018-03-22T02:36:32.257Z,99.99
2018-03-22T02:37:32.821Z,99.99
2018-03-22T02:38:33.385Z,99.99
2018-03-22T02:39:35.363Z,99.99
2018-03-22T02:40:35.927Z,99.99
2018-03-22T02:41:36.492Z,99.99
2018-03-22T02:42:37.056Z,99.99
2018-03-22T02:43:37.627Z,99.99
2018-03-22T02:44:38.183Z,99.99
2018-03-22T02:45:38.746Z,99.99
2018-03-22T02:46:39.309Z,99.99
2018-03-22T02:47:39.872Z,99.99
2018-03-22T02:48:40.437Z,99.99
2018-03-22T02:49:41.003Z,99.99
2018-03-22T02:50:41.571Z,99.99
2018-03-22T02:51:42.141Z,99.99
2018-03-22T02:52:42.706Z,99.99
2018-03-22T02:53:43.269Z,99.99
2018-03-22T02:54:43.836Z,99.99
2018-03-22T02:55:44.400Z,99.99
2018-03-22T02:56:44.967Z,99.99
2018-03-22T02:57:45.536Z,99.99
2018-03-22T02:58:46.094Z,99.99
2018-03-22T02:59:46.673Z,99.99
2018-03-22T03:00:47.223Z,99.99
2018-03-22T03:01:47.786Z,99.99
2018-03-22T03:02:48.364Z,99.99
2018-03-22T03:03:48.928Z,99.99
2018-03-22T03:04:49.492Z,99.99
2018-03-22T03:05:50.058Z,99.99
2018-03-22T03:06:50.622Z,99.99
2018-03-22T03:07:51.190Z,99.99
2018-03-22T03:08:51.753Z,99.99
2018-03-22T03:09:52.319Z,99.99
2018-03-22T03:10:52.884Z,99.99
2018-03-22T03:11:53.451Z,99.99
2018-03-22T03:12:54.014Z,99.99
2018-03-22T03:13:54.586Z,99.99
2018-03-22T03:14:55.153Z,99.99
2018-03-22T03:15:55.725Z,98.63
2018-03-22T03:16:56.297Z,98.35
2018-03-22T03:17:56.854Z,98.25
2018-03-22T03:18:57.420Z,98.06
2018-03-22T03:19:57.993Z,97.49
2018-03-22T03:20:58.560Z,96.55
2018-03-22T03:21:59.121Z,97.21
2018-03-22T03:22:59.687Z,95.79
2018-03-22T03:24:00.251Z,95.03
2018-03-22T03:25:00.811Z,94.18
2018-03-22T03:26:01.373Z,93.80
2018-03-22T03:27:01.948Z,93.23
2018-03-22T03:28:02.513Z,92.85
2018-03-22T03:29:03.077Z,92.09
2018-03-22T03:30:03.656Z,91.33
2018-03-22T03:31:04.227Z,90.77
2018-03-22T03:32:04.793Z,90.95
2018-03-22T03:33:05.364Z,89.82
2018-03-22T03:34:05.931Z,89.68
2018-03-22T03:35:06.491Z,88.87
2018-03-22T03:36:07.055Z,88.78
2018-03-22T03:37:07.621Z,89.06
2018-03-22T03:38:08.184Z,89.06
2018-03-22T03:39:08.748Z,87.83
2018-03-22T03:40:09.323Z,87.83
2018-03-22T03:41:09.888Z,87.35
2018-03-22T03:42:10.452Z,86.50
2018-03-22T03:43:11.028Z,85.46
2018-03-22T03:44:11.602Z,84.61
2018-03-22T03:45:12.167Z,83.81
2018-03-22T03:46:12.732Z,83.00
2018-03-22T03:47:13.304Z,82.57
2018-03-22T03:48:13.870Z,81.92
2018-03-22T03:49:14.444Z,81.25
2018-03-22T03:50:15.010Z,80.40
2018-03-22T03:51:15.576Z,81.06
2018-03-22T03:52:16.141Z,80.40
2018-03-22T03:53:16.704Z,80.96
2018-03-22T03:54:17.268Z,80.87
2018-03-22T03:55:17.841Z,80.58
2018-03-22T03:56:18.405Z,80.44
2018-03-22T03:57:18.984Z,80.91
2018-03-22T03:58:19.544Z,80.44
2018-03-22T03:59:20.109Z,80.87
2018-03-22T04:00:20.672Z,81.95
2018-03-22T04:01:21.236Z,81.20
2018-03-22T04:02:21.800Z,81.10
2018-03-22T04:03:22.365Z,81.34
2018-03-22T04:04:22.928Z,81.10
2018-03-22T04:05:23.495Z,80.58
2018-03-22T04:06:24.067Z,79.87
2018-03-22T04:07:24.631Z,79.21
2018-03-22T04:08:25.197Z,78.69
2018-03-22T04:09:25.761Z,78.54
2018-03-22T04:10:26.325Z,77.88
2018-03-22T04:11:26.892Z,77.12
2018-03-22T04:12:27.456Z,76.46
2018-03-22T04:13:28.020Z,75.42
2018-03-22T04:14:28.591Z,75.23
2018-03-22T04:15:29.155Z,75.09
2018-03-22T04:16:29.718Z,74.66
2018-03-22T04:17:30.282Z,73.61
2018-03-22T04:18:30.850Z,73.11
2018-03-22T04:19:31.411Z,72.25
2018-03-22T04:20:31.976Z,71.50
2018-03-22T04:21:32.550Z,69.13
2018-03-22T04:22:33.114Z,69.17
2018-03-22T04:23:33.680Z,68.79
2018-03-22T04:24:34.245Z,68.88
2018-03-22T04:25:34.810Z,68.02
2018-03-22T04:26:35.374Z,67.43
2018-03-22T04:27:35.939Z,66.09
2018-03-22T04:28:36.504Z,65.06
2018-03-22T04:29:37.068Z,64.49
2018-03-22T04:30:37.632Z,63.73
2018-03-22T04:31:38.203Z,63.26
2018-03-22T04:32:38.761Z,61.18
2018-03-22T04:33:39.325Z,60.44
2018-03-22T04:34:39.889Z,58.90
2018-03-22T04:35:40.498Z,58.45
2018-03-22T04:36:41.017Z,57.79
2018-03-22T04:37:41.582Z,57.29
2018-03-22T04:38:42.156Z,56.37
2018-03-22T04:39:42.720Z,55.87
2018-03-22T04:40:43.286Z,55.71
2018-03-22T04:41:43.851Z,54.93
2018-03-22T04:42:44.417Z,54.16
2018-03-22T04:43:44.981Z,53.41
2018-03-22T04:44:45.544Z,52.75
2018-03-22T04:45:46.107Z,51.89
2018-03-22T04:46:46.676Z,50.95
2018-03-22T04:47:47.234Z,50.88
2018-03-22T04:48:47.801Z,50.47
2018-03-22T04:49:48.363Z,49.62
2018-03-22T04:50:48.927Z,49.24
2018-03-22T04:51:49.499Z,49.24
2018-03-22T04:52:50.063Z,48.77
2018-03-22T04:53:50.626Z,48.29
2018-03-22T04:54:51.189Z,48.01
2018-03-22T04:55:51.753Z,47.72
2018-03-22T04:56:52.315Z,46.88
2018-03-22T04:57:52.879Z,46.50
2018-03-22T04:58:53.452Z,46.59
2018-03-22T04:59:54.018Z,46.14
2018-03-22T05:00:54.593Z,45.07
2018-03-22T05:01:55.168Z,44.70
2018-03-22T05:02:55.733Z,44.70
2018-03-22T05:03:56.301Z,44.13
2018-03-22T05:04:56.859Z,43.65
2018-03-22T05:05:57.423Z,43.84
2018-03-22T05:06:58.042Z,43.56
2018-03-22T05:07:58.552Z,43.56
2018-03-22T05:08:59.117Z,43.65
2018-03-22T05:09:59.680Z,43.65
2018-03-22T05:11:00.245Z,43.27
2018-03-22T05:12:00.810Z,42.80
2018-03-22T05:13:01.374Z,42.90
2018-03-22T05:14:01.936Z,42.80
2018-03-22T05:15:02.501Z,42.80
2018-03-22T05:16:03.066Z,42.99
2018-03-22T05:17:03.630Z,43.46
2018-03-22T05:18:04.194Z,43.46
2018-03-22T05:19:04.758Z,42.99
2018-03-22T05:20:05.321Z,43.56
2018-03-22T05:21:05.896Z,44.70
2018-03-22T05:22:06.461Z,46.12
2018-03-22T05:23:07.024Z,46.12
2018-03-22T05:24:07.590Z,44.89
2018-03-22T05:25:08.155Z,45.36
2018-03-22T05:26:08.721Z,45.93
2018-03-22T05:27:09.284Z,45.07
2018-03-22T05:28:09.850Z,44.98
2018-03-22T05:29:10.413Z,44.89
2018-03-22T05:30:10.978Z,46.12
2018-03-22T05:31:11.542Z,46.21
2018-03-22T05:32:12.113Z,45.36
2018-03-22T05:33:12.670Z,45.55
2018-03-22T05:34:13.235Z,45.64
2018-03-22T05:35:13.810Z,44.98
2018-03-22T05:36:14.374Z,46.21
2018-03-22T05:37:14.939Z,45.55
2018-03-22T05:38:15.504Z,46.50
2018-03-22T05:39:16.070Z,46.40
2018-03-22T05:40:16.636Z,46.40
2018-03-22T05:41:17.200Z,46.69
2018-03-22T05:42:17.774Z,45.55
2018-03-22T05:43:18.337Z,46.02
2018-03-22T05:44:18.901Z,45.74
2018-03-22T05:45:19.465Z,45.07
2018-03-22T05:46:20.034Z,44.89
2018-03-22T05:47:20.595Z,45.36
2018-03-22T05:48:21.162Z,44.98
2018-03-22T05:49:21.728Z,44.41
2018-03-22T05:50:22.295Z,44.41
2018-03-22T05:51:22.859Z,44.13
2018-03-22T05:52:23.425Z,44.41
2018-03-22T05:53:23.990Z,44.13
2018-03-22T05:54:24.571Z,43.94
2018-03-22T05:55:25.132Z,44.22
2018-03-22T05:56:25.696Z,44.41
2018-03-22T05:57:26.263Z,43.75
2018-03-22T05:58:26.828Z,44.13
2018-03-22T05:59:27.404Z,43.84
2018-03-22T06:00:27.972Z,42.99
2018-03-22T06:01:28.542Z,42.99
2018-03-22T06:02:29.103Z,42.14
2018-03-22T06:03:29.668Z,42.14
2018-03-22T06:04:30.233Z,41.38
2018-03-22T06:05:30.798Z,41.28
2018-03-22T06:06:31.363Z,41.19
2018-03-22T06:07:31.927Z,40.72
2018-03-22T06:08:32.491Z,40.25
2018-03-22T06:09:33.056Z,40.06
2018-03-22T06:10:33.621Z,39.58
2018-03-22T06:11:34.191Z,39.68
2018-03-22T06:12:34.760Z,38.73
2018-03-22T06:13:35.327Z,38.64
2018-03-22T06:14:35.892Z,38.73
2018-03-22T06:15:36.457Z,38.54
2018-03-22T06:16:37.021Z,38.35
2018-03-22T06:17:37.586Z,38.07
2018-03-22T06:18:38.149Z,37.40
2018-03-22T06:19:38.713Z,37.88
2018-03-22T06:20:39.283Z,37.78
2018-03-22T06:21:39.843Z,37.12
2018-03-22T06:22:40.407Z,36.08
2018-03-22T06:23:40.984Z,35.79
2018-03-22T06:24:41.555Z,35.60
2018-03-22T06:25:42.191Z,35.79
2018-03-22T06:26:42.685Z,35.70
2018-03-22T06:27:43.249Z,35.51
2018-03-22T06:28:43.813Z,34.19
2018-03-22T06:29:44.380Z,34.09
2018-03-22T06:30:44.945Z,34.00
2018-03-22T06:31:45.513Z,34.56
2018-03-22T06:32:46.088Z,34.75
2018-03-22T06:33:46.655Z,34.84
2018-03-22T06:34:47.214Z,34.66
2018-03-22T06:35:47.792Z,34.75
2018-03-22T06:36:48.356Z,34.75
2018-03-22T06:37:48.922Z,34.86
2018-03-22T06:38:49.504Z,34.96
2018-03-22T06:39:50.065Z,35.70
2018-03-22T06:40:50.641Z,35.70
2018-03-22T06:41:51.208Z,35.89
2018-03-22T06:42:51.775Z,36.08
2018-03-22T06:43:52.342Z,36.19
2018-03-22T06:44:52.909Z,36.38
2018-03-22T06:45:53.473Z,36.10
2018-03-22T06:46:54.041Z,35.91
2018-03-22T06:47:54.616Z,35.91
2018-03-22T06:48:55.181Z,36.29
2018-03-22T06:49:55.747Z,37.61
2018-03-22T06:50:56.313Z,38.37
2018-03-22T06:51:56.877Z,37.40
2018-03-22T06:52:57.442Z,37.33
2018-03-22T06:53:58.006Z,37.23
2018-03-22T06:54:58.571Z,37.14
2018-03-22T06:55:59.139Z,37.99
2018-03-22T06:56:59.703Z,37.80
2018-03-22T06:58:00.265Z,38.09
2018-03-22T06:59:00.829Z,38.35
2018-03-22T07:00:01.396Z,38.18
2018-03-22T07:01:01.961Z,39.60
2018-03-22T07:02:02.526Z,39.22
2018-03-22T07:03:03.092Z,39.60
2018-03-22T07:04:03.658Z,39.39
2018-03-22T07:05:04.226Z,40.44
2018-03-22T07:06:04.789Z,40.26
2018-03-22T07:07:05.354Z,40.25
2018-03-22T07:08:05.917Z,40.06
2018-03-22T07:09:06.490Z,39.39
2018-03-22T07:10:07.046Z,39.29
2018-03-22T07:11:07.611Z,39.03
2018-03-22T07:12:08.175Z,39.29
2018-03-22T07:13:08.742Z,39.39
2018-03-22T07:14:09.303Z,39.68
2018-03-22T07:15:09.879Z,39.29
2018-03-22T07:16:10.446Z,38.35
2018-03-22T07:17:11.011Z,37.23
2018-03-22T07:18:11.576Z,37.31
2018-03-22T07:19:12.141Z,37.31
2018-03-22T07:20:12.707Z,37.88
2018-03-22T07:21:13.273Z,37.69
2018-03-22T07:22:13.840Z,36.19
2018-03-22T07:23:14.408Z,35.79
2018-03-22T07:24:14.974Z,36.36
2018-03-22T07:25:15.551Z,36.19
2018-03-22T07:26:16.118Z,36.08
2018-03-22T07:27:16.686Z,36.08
2018-03-22T07:28:17.251Z,35.51
2018-03-22T07:29:17.816Z,35.70
2018-03-22T07:30:18.381Z,36.57
2018-03-22T07:31:18.960Z,36.76
2018-03-22T07:32:19.514Z,37.14
2018-03-22T07:33:20.079Z,37.02
2018-03-22T07:34:20.644Z,37.40
2018-03-22T07:35:21.207Z,38.46
2018-03-22T07:36:21.775Z,38.64
2018-03-22T07:37:22.343Z,39.39
2018-03-22T07:38:22.909Z,39.22
2018-03-22T07:39:23.476Z,39.41
2018-03-22T07:40:24.042Z,39.39
2018-03-22T07:41:24.606Z,39.22
2018-03-22T07:42:25.173Z,39.51
2018-03-22T07:43:25.749Z,39.39
2018-03-22T07:44:26.315Z,39.32
2018-03-22T07:45:26.881Z,38.94
2018-03-22T07:46:27.446Z,39.39
2018-03-22T07:47:28.011Z,38.82
2018-03-22T07:48:28.576Z,38.16
2018-03-22T07:49:29.143Z,37.80
2018-03-22T07:50:29.718Z,37.42
2018-03-22T07:51:30.296Z,37.04
2018-03-22T07:52:30.872Z,36.19
2018-03-22T07:53:31.438Z,36.10
2018-03-22T07:54:32.002Z,35.53
2018-03-22T07:55:32.599Z,35.05
2018-03-22T07:56:33.131Z,34.86
2018-03-22T07:57:33.697Z,34.39
2018-03-22T07:58:34.262Z,34.11
2018-03-22T07:59:34.831Z,33.35
2018-03-22T08:00:35.395Z,33.06
2018-03-22T08:01:35.963Z,33.06
2018-03-22T08:02:36.531Z,33.54
2018-03-22T08:03:37.093Z,33.73
2018-03-22T08:04:37.658Z,33.35
2018-03-22T08:05:38.223Z,33.06
2018-03-22T08:06:38.789Z,32.97
2018-03-22T08:07:39.354Z,33.25
2018-03-22T08:08:39.925Z,33.35
2018-03-22T08:09:40.488Z,33.16
2018-03-22T08:10:41.056Z,33.25
2018-03-22T08:11:41.622Z,33.06
2018-03-22T08:12:42.189Z,33.35
2018-03-22T08:13:42.755Z,33.44
2018-03-22T08:14:43.319Z,33.35
2018-03-22T08:15:43.885Z,33.16
2018-03-22T08:16:44.461Z,33.16
2018-03-22T08:17:45.028Z,32.87
2018-03-22T08:18:45.594Z,32.78
2018-03-22T08:19:46.160Z,32.78
2018-03-22T08:20:46.729Z,32.59
2018-03-22T08:21:47.290Z,32.50
2018-03-22T08:22:47.866Z,32.12
2018-03-22T08:23:48.434Z,31.93
2018-03-22T08:24:49.000Z,31.64
2018-03-22T08:25:49.566Z,32.40
2018-03-22T08:26:50.133Z,32.21
2018-03-22T08:27:50.709Z,32.31
2018-03-22T08:28:51.275Z,31.83
2018-03-22T08:29:51.841Z,31.83
2018-03-22T08:30:52.406Z,31.64
2018-03-22T08:31:52.971Z,31.64
2018-03-22T08:32:53.546Z,31.55
2018-03-22T08:33:54.115Z,31.64
2018-03-22T08:34:54.684Z,31.26
2018-03-22T08:35:55.245Z,30.79
2018-03-22T08:36:55.821Z,31.36
2018-03-22T08:37:56.387Z,31.83
2018-03-22T08:38:56.953Z,32.40
2018-03-22T08:39:57.520Z,32.50
2018-03-22T08:40:58.094Z,32.87
2018-03-22T08:41:58.650Z,33.06
2018-03-22T08:42:59.220Z,33.63
2018-03-22T08:43:59.793Z,33.73
2018-03-22T08:45:00.360Z,33.54
2018-03-22T08:46:00.937Z,34.67
2018-03-22T08:47:01.506Z,34.77
2018-03-22T08:48:02.075Z,34.96
2018-03-22T08:49:02.647Z,35.24
2018-03-22T08:50:03.215Z,35.05
2018-03-22T08:51:03.783Z,35.62
2018-03-22T08:52:04.355Z,35.62
2018-03-22T08:53:04.922Z,36.00
2018-03-22T08:54:05.500Z,35.05
2018-03-22T08:55:06.066Z,35.26
2018-03-22T08:56:06.633Z,35.43
2018-03-22T08:57:07.199Z,35.72
2018-03-22T08:58:07.764Z,35.36
2018-03-22T08:59:08.334Z,35.74
2018-03-22T09:00:08.900Z,35.64
2018-03-22T09:01:09.472Z,35.74
2018-03-22T09:02:10.036Z,35.74
2018-03-22T09:03:10.603Z,35.64
2018-03-22T09:04:11.169Z,35.74
2018-03-22T09:05:11.735Z,35.83
2018-03-22T09:06:12.302Z,36.02
2018-03-22T09:07:12.869Z,35.45
2018-03-22T09:08:13.452Z,35.74
2018-03-22T09:09:14.018Z,36.30
2018-03-22T09:10:14.582Z,35.74
2018-03-22T09:11:15.154Z,36.21
2018-03-22T09:12:15.721Z,36.49
2018-03-22T09:13:16.288Z,35.83
2018-03-22T09:14:16.891Z,35.64
2018-03-22T09:15:17.423Z,36.49
2018-03-22T09:16:17.992Z,35.83
2018-03-22T09:17:18.560Z,35.17
2018-03-22T09:18:19.131Z,35.74
2018-03-22T09:19:19.702Z,35.45
2018-03-22T09:20:20.268Z,36.02
2018-03-22T09:21:20.834Z,36.11
2018-03-22T09:22:21.403Z,36.30
2018-03-22T09:23:21.970Z,36.30
2018-03-22T09:24:22.537Z,35.93
2018-03-22T09:25:23.104Z,36.59
2018-03-22T09:26:23.672Z,36.49
2018-03-22T09:27:24.239Z,37.16
2018-03-22T09:28:24.815Z,36.97
2018-03-22T09:29:25.486Z,37.16
2018-03-22T09:30:25.951Z,38.01
2018-03-22T09:31:26.520Z,38.41
2018-03-22T09:32:27.088Z,39.26
2018-03-22T09:33:27.657Z,38.98
2018-03-22T09:34:28.224Z,39.07
2018-03-22T09:35:28.790Z,38.98
2018-03-22T09:36:29.358Z,39.36
2018-03-22T09:37:29.925Z,39.73
2018-03-22T09:38:30.510Z,39.36
2018-03-22T09:39:31.071Z,39.45
2018-03-22T09:40:31.640Z,39.45
2018-03-22T09:41:32.211Z,39.17
2018-03-22T09:42:32.779Z,39.45
2018-03-22T09:43:33.346Z,39.07
2018-03-22T09:44:33.913Z,39.26
2018-03-22T09:45:34.482Z,37.93
2018-03-22T09:46:35.049Z,38.31
2018-03-22T09:47:35.618Z,38.22
2018-03-22T09:48:36.186Z,38.31
2018-03-22T09:49:36.753Z,38.41
2018-03-22T09:50:37.321Z,38.79
2018-03-22T09:51:37.887Z,38.60
2018-03-22T09:52:38.456Z,38.22
2018-03-22T09:53:39.026Z,38.31
2018-03-22T09:54:39.594Z,38.31
2018-03-22T09:55:40.164Z,37.27
2018-03-22T09:56:40.742Z,37.18
2018-03-22T09:57:41.310Z,37.46
2018-03-22T09:58:41.879Z,38.31
2018-03-22T09:59:42.446Z,39.54
2018-03-22T10:00:43.015Z,40.89
2018-03-22T10:01:43.585Z,41.27
2018-03-22T10:02:44.154Z,40.89
2018-03-22T10:03:44.725Z,40.89
2018-03-22T10:04:45.290Z,41.16
2018-03-22T10:05:45.859Z,41.66
2018-03-22T10:06:46.427Z,42.79
2018-03-22T10:07:46.997Z,43.93
2018-03-22T10:08:47.567Z,43.84
2018-03-22T10:09:48.134Z,43.46
2018-03-22T10:10:48.702Z,43.84
2018-03-22T10:11:49.270Z,45.54
2018-03-22T10:12:49.840Z,44.79
2018-03-22T10:13:50.409Z,43.84
2018-03-22T10:14:50.987Z,43.36
2018-03-22T10:15:51.566Z,43.46
2018-03-22T10:16:52.134Z,44.50
2018-03-22T10:17:52.703Z,44.02
2018-03-22T10:18:53.270Z,43.17
2018-03-22T10:19:53.840Z,42.89
2018-03-22T10:20:54.408Z,42.70
2018-03-22T10:21:54.978Z,42.98
2018-03-22T10:22:55.546Z,43.74
2018-03-22T10:23:56.115Z,43.55
2018-03-22T10:24:56.694Z,44.50
2018-03-22T10:25:57.263Z,44.50
2018-03-22T10:26:57.830Z,44.88
2018-03-22T10:27:58.409Z,44.50
2018-03-22T10:28:58.978Z,45.07
2018-03-22T10:29:59.556Z,43.36
2018-03-22T10:31:00.126Z,42.79
2018-03-22T10:32:00.695Z,43.65
2018-03-22T10:33:01.276Z,43.55
2018-03-22T10:34:01.843Z,44.60
2018-03-22T10:35:02.410Z,44.40
2018-03-22T10:36:02.980Z,43.93
2018-03-22T10:37:03.550Z,42.89
2018-03-22T10:38:04.118Z,44.88
2018-03-22T10:39:04.687Z,43.93
2018-03-22T10:40:05.256Z,42.79
2018-03-22T10:41:05.825Z,42.70
2018-03-22T10:42:06.404Z,42.32
2018-03-22T10:43:06.973Z,41.56
2018-03-22T10:44:07.544Z,41.85
2018-03-22T10:45:08.111Z,42.13
2018-03-22T10:46:08.679Z,41.37
2018-03-22T10:47:09.248Z,41.46
2018-03-22T10:48:09.818Z,41.94
2018-03-22T10:49:10.389Z,42.03
2018-03-22T10:50:10.956Z,41.46
2018-03-22T10:51:11.524Z,41.30
2018-03-22T10:52:12.092Z,40.61
2018-03-22T10:53:12.662Z,40.44
2018-03-22T10:54:13.248Z,40.34
2018-03-22T10:55:13.800Z,41.01
2018-03-22T10:56:14.369Z,41.49
2018-03-22T10:57:14.949Z,41.49
2018-03-22T10:58:15.526Z,41.77
2018-03-22T10:59:16.092Z,44.81
2018-03-22T11:00:16.668Z,44.81
2018-03-22T11:01:17.236Z,45.09
2018-03-22T11:02:17.806Z,47.37
2018-03-22T11:03:18.375Z,50.03
2018-03-22T11:04:18.955Z,53.83
2018-03-22T11:05:19.523Z,54.58
2018-03-22T11:06:20.092Z,55.06
2018-03-22T11:07:20.660Z,55.09
2018-03-22T11:08:21.230Z,59.65
2018-03-22T11:09:21.799Z,62.66
2018-03-22T11:10:22.369Z,59.36
2018-03-22T11:11:22.939Z,61.83
2018-03-22T11:12:23.508Z,58.98
2018-03-22T11:13:24.078Z,59.74
2018-03-22T11:14:24.646Z,62.02
2018-03-22T11:15:25.218Z,65.12
2018-03-22T11:16:25.790Z,62.69
2018-03-22T11:17:26.358Z,62.59
2018-03-22T11:18:26.927Z,62.02
2018-03-22T11:19:27.500Z,63.17
2018-03-22T11:20:28.063Z,67.15
2018-03-22T11:21:28.637Z,70.67
2018-03-22T11:22:29.214Z,72.00
2018-03-22T11:23:29.783Z,73.71
2018-03-22T11:24:30.357Z,75.99
2018-03-22T11:25:30.926Z,75.23
2018-03-22T11:26:31.500Z,76.46
2018-03-22T11:27:32.085Z,81.40
2018-03-22T11:28:32.633Z,79.22
2018-03-22T11:29:33.216Z,79.03
2018-03-22T11:30:33.782Z,77.70
2018-03-22T11:31:34.351Z,77.98
2018-03-22T11:32:34.919Z,76.93
2018-03-22T11:33:35.530Z,78.93
2018-03-22T11:34:36.067Z,80.74
2018-03-22T11:35:36.634Z,81.12
2018-03-22T11:36:37.202Z,82.35
2018-03-22T11:37:37.772Z,82.45
2018-03-22T11:38:38.336Z,81.87
2018-03-22T11:39:38.905Z,87.19
2018-03-22T11:40:39.474Z,86.43
2018-03-22T11:41:40.048Z,87.01
2018-03-22T11:42:40.614Z,89.95
2018-03-22T11:43:41.182Z,88.81
2018-03-22T11:44:41.760Z,87.38
2018-03-22T11:45:42.340Z,86.82
2018-03-22T11:46:42.922Z,86.24
2018-03-22T11:47:43.487Z,85.96
2018-03-22T11:48:44.055Z,85.86
2018-03-22T11:49:44.623Z,88.43
2018-03-22T11:50:45.246Z,86.91
2018-03-22T11:51:45.760Z,89.76
2018-03-22T11:52:46.328Z,89.95
2018-03-22T11:53:46.946Z,96.22
2018-03-22T11:54:47.474Z,98.79
2018-03-22T11:55:48.043Z,98.69
2018-03-22T11:56:48.611Z,98.40
2018-03-22T11:57:49.179Z,98.59
2018-03-22T11:58:49.745Z,96.98
2018-03-22T11:59:50.315Z,98.40
2018-03-22T12:00:50.888Z,99.07
2018-03-22T12:01:51.739Z,98.59
2018-03-22T12:02:52.282Z,97.92
2018-03-22T12:03:52.850Z,98.88
2018-03-22T12:04:53.419Z,98.88
2018-03-22T12:05:53.988Z,98.59
2018-03-22T12:06:54.558Z,99.99
2018-03-22T12:07:55.130Z,99.99
2018-03-22T12:08:55.699Z,99.99
2018-03-22T12:09:56.268Z,99.99
2018-03-22T12:10:56.835Z,99.99
2018-03-22T12:11:57.405Z,99.99
2018-03-22T12:12:57.977Z,99.99
2018-03-22T12:13:58.546Z,99.99
2018-03-22T12:14:59.118Z,99.99
2018-03-22T12:15:59.687Z,99.99
2018-03-22T12:17:00.255Z,99.99
2018-03-22T12:18:00.826Z,99.99
2018-03-22T12:19:01.396Z,99.99
2018-03-22T12:20:01.967Z,99.99
2018-03-22T12:21:02.536Z,99.99
2018-03-22T12:22:03.267Z,99.99
2018-03-22T12:23:03.837Z,99.99
2018-03-22T12:24:04.417Z,99.99
2018-03-22T12:25:04.989Z,99.99
2018-03-22T12:26:05.569Z,99.99
2018-03-22T12:27:06.140Z,99.99
2018-03-22T12:28:06.723Z,99.99
2018-03-22T12:29:07.300Z,99.99
2018-03-22T12:30:07.870Z,99.99
2018-03-22T12:31:08.440Z,99.99
2018-03-22T12:32:09.016Z,99.99
2018-03-22T12:33:09.591Z,99.99
2018-03-22T12:34:10.163Z,99.99
2018-03-22T12:35:10.733Z,99.99
2018-03-22T12:36:11.304Z,99.99
2018-03-22T12:37:11.876Z,99.99
2018-03-22T12:38:12.444Z,99.99
2018-03-22T12:39:13.027Z,99.99
2018-03-22T12:40:13.598Z,99.99
2018-03-22T12:41:14.176Z,99.99
2018-03-22T12:42:14.745Z,99.99
2018-03-22T12:43:15.366Z,99.99
2018-03-22T12:44:15.888Z,99.99
2018-03-22T12:45:16.461Z,99.99
2018-03-22T12:46:17.030Z,99.99
2018-03-22T12:47:17.599Z,99.99
2018-03-22T12:48:18.169Z,99.99
2018-03-22T12:49:18.738Z,99.99
2018-03-22T12:50:19.310Z,99.99
2018-03-22T12:51:19.879Z,99.99
2018-03-22T12:52:20.451Z,99.99
2018-03-22T12:53:21.019Z,99.99
2018-03-22T12:54:21.589Z,99.99
2018-03-22T12:55:22.160Z,99.99
2018-03-22T12:56:22.733Z,99.99
2018-03-22T12:57:23.300Z,99.99
2018-03-22T12:58:23.869Z,99.99
2018-03-22T12:59:24.439Z,99.99